createdAt,value
2017-08-31T00:00:45.337Z,24.4
2017-08-31T00:01:45.981Z,24.3
2017-08-31T00:02:46.628Z,24.4
2017-08-31T00:03:47.280Z,24.4
2017-08-31T00:04:47.919Z,24.4
2017-08-31T00:05:48.564Z,24.3
2017-08-31T00:06:49.209Z,24.4
2017-08-31T00:07:49.852Z,24.4
2017-08-31T00:08:50.497Z,24.4
2017-08-31T00:09:51.141Z,24.3
2017-08-31T00:10:51.785Z,24.4
2017-08-31T00:11:52.577Z,24.3
2017-08-31T00:12:53.222Z,24.4
2017-08-31T00:13:53.866Z,24.4
2017-08-31T00:14:54.510Z,24.4
2017-08-31T00:15:55.155Z,24.4
2017-08-31T00:16:55.799Z,24.5
2017-08-31T00:17:56.443Z,24.4
2017-08-31T00:18:57.088Z,24.4
2017-08-31T00:19:57.733Z,24.4
2017-08-31T00:20:58.379Z,24.3
2017-08-31T00:21:59.022Z,24.3
2017-08-31T00:22:59.668Z,24.4
2017-08-31T00:24:00.312Z,24.3
2017-08-31T00:25:00.958Z,24.4
2017-08-31T00:26:01.603Z,24.4
2017-08-31T00:27:02.350Z,24.4
2017-08-31T00:28:02.993Z,24.4
2017-08-31T00:29:03.637Z,24.4
2017-08-31T00:30:04.283Z,24.3
2017-08-31T00:31:04.924Z,24.3
2017-08-31T00:32:05.568Z,24.4
2017-08-31T00:33:06.214Z,24.3
2017-08-31T00:34:06.858Z,24.3
2017-08-31T00:35:07.504Z,24.3
2017-08-31T00:36:08.147Z,24.4
2017-08-31T00:37:08.793Z,24.3
2017-08-31T00:38:09.436Z,24.3
2017-08-31T00:39:10.087Z,24.3
2017-08-31T00:40:10.731Z,24.3
2017-08-31T00:41:11.377Z,24.4
2017-08-31T00:42:12.271Z,24.3
2017-08-31T00:43:12.918Z,24.3
2017-08-31T00:44:13.562Z,24.4
2017-08-31T00:45:14.208Z,24.3
2017-08-31T00:46:14.853Z,24.4
2017-08-31T00:47:15.496Z,24.4
2017-08-31T00:48:16.142Z,24.3
2017-08-31T00:49:16.785Z,24.3
2017-08-31T00:50:17.433Z,24.4
2017-08-31T00:51:18.071Z,24.4
2017-08-31T00:52:18.724Z,24.3
2017-08-31T00:53:19.390Z,24.3
2017-08-31T00:54:20.034Z,24.3
2017-08-31T00:55:20.678Z,24.4
2017-08-31T00:56:21.319Z,24.3
2017-08-31T00:57:22.113Z,24.2
2017-08-31T00:58:22.759Z,24.3
2017-08-31T00:59:23.403Z,24.3
2017-08-31T01:00:24.048Z,24.3
2017-08-31T01:01:24.692Z,24.4
2017-08-31T01:02:25.336Z,24.3
2017-08-31T01:03:25.981Z,24.2
2017-08-31T01:04:26.628Z,24.2
2017-08-31T01:05:27.273Z,24.2
2017-08-31T01:06:27.917Z,24.3
2017-08-31T01:07:28.563Z,24.3
2017-08-31T01:08:29.208Z,24.3
2017-08-31T01:09:29.854Z,24.3
2017-08-31T01:10:30.498Z,24.3
2017-08-31T01:11:31.144Z,24.3
2017-08-31T01:12:31.940Z,24.3
2017-08-31T01:13:32.584Z,24.3
2017-08-31T01:14:33.230Z,24.3
2017-08-31T01:15:33.877Z,24.3
2017-08-31T01:16:34.521Z,24.2
2017-08-31T01:17:35.166Z,24.3
2017-08-31T01:18:35.810Z,24.3
2017-08-31T01:19:36.456Z,24.3
2017-08-31T01:20:37.100Z,24.3
2017-08-31T01:21:37.744Z,24.3
2017-08-31T01:22:38.390Z,24.3
2017-08-31T01:23:39.036Z,24.3
2017-08-31T01:24:39.683Z,24.3
2017-08-31T01:25:40.328Z,24.3
2017-08-31T01:26:40.973Z,24.3
2017-08-31T01:27:41.769Z,24.3
2017-08-31T01:28:42.413Z,24.2
2017-08-31T01:29:43.058Z,24.2
2017-08-31T01:30:43.705Z,24.2
2017-08-31T01:31:44.349Z,24.3
2017-08-31T01:32:44.994Z,24.2
2017-08-31T01:33:45.639Z,24.3
2017-08-31T01:34:46.288Z,24.2
2017-08-31T01:35:46.927Z,24.2
2017-08-31T01:36:47.571Z,24.2
2017-08-31T01:37:48.215Z,24.3
2017-08-31T01:38:48.860Z,24.2
2017-08-31T01:39:49.504Z,24.3
2017-08-31T01:40:50.149Z,24.3
2017-08-31T01:41:50.792Z,24.3
2017-08-31T01:42:51.586Z,24.3
2017-08-31T01:43:52.229Z,24.2
2017-08-31T01:44:52.874Z,24.2
2017-08-31T01:45:53.518Z,24.2
2017-08-31T01:46:54.163Z,24.3
2017-08-31T01:47:54.808Z,24.2
2017-08-31T01:48:55.455Z,24.3
2017-08-31T01:49:56.102Z,24.3
2017-08-31T01:50:56.745Z,24.3
2017-08-31T01:51:57.388Z,24.1
2017-08-31T01:52:58.034Z,24.2
2017-08-31T01:53:58.678Z,24.2
2017-08-31T01:54:59.323Z,24.3
2017-08-31T01:55:59.968Z,24.2
2017-08-31T01:57:00.614Z,24.3
2017-08-31T01:58:01.358Z,24.2
2017-08-31T01:59:02.003Z,24.2
2017-08-31T02:00:02.646Z,24.2
2017-08-31T02:01:03.289Z,24.2
2017-08-31T02:02:03.932Z,24.1
2017-08-31T02:03:04.577Z,24.1
2017-08-31T02:04:05.221Z,24.2
2017-08-31T02:05:05.871Z,24.2
2017-08-31T02:06:06.510Z,24.2
2017-08-31T02:07:07.156Z,24.3
2017-08-31T02:08:07.802Z,24.1
2017-08-31T02:09:08.446Z,24.2
2017-08-31T02:10:09.091Z,24.2
2017-08-31T02:11:09.737Z,24.2
2017-08-31T02:12:10.411Z,24.3
2017-08-31T02:13:11.304Z,24.1
2017-08-31T02:14:11.948Z,24.3
2017-08-31T02:15:12.593Z,24.2
2017-08-31T02:16:13.238Z,24.1
2017-08-31T02:17:13.882Z,24.1
2017-08-31T02:18:14.528Z,24.1
2017-08-31T02:19:15.172Z,24.2
2017-08-31T02:20:15.814Z,24.1
2017-08-31T02:21:16.456Z,24.1
2017-08-31T02:22:17.098Z,24.1
2017-08-31T02:23:17.753Z,24.2
2017-08-31T02:24:18.388Z,24.2
2017-08-31T02:25:19.032Z,24.1
2017-08-31T02:26:19.677Z,24.2
2017-08-31T02:27:20.322Z,24.1
2017-08-31T02:28:21.115Z,24.1
2017-08-31T02:29:21.760Z,24.1
2017-08-31T02:30:22.407Z,24.2
2017-08-31T02:31:23.050Z,24.2
2017-08-31T02:32:23.697Z,24.1
2017-08-31T02:33:24.341Z,24.1
2017-08-31T02:34:24.985Z,24.2
2017-08-31T02:35:25.630Z,24.1
2017-08-31T02:36:26.274Z,24.2
2017-08-31T02:37:26.918Z,24.2
2017-08-31T02:38:27.561Z,24.2
2017-08-31T02:39:28.203Z,24.2
2017-08-31T02:40:28.848Z,24.1
2017-08-31T02:41:29.492Z,24.2
2017-08-31T02:42:30.136Z,24.2
2017-08-31T02:43:30.931Z,24.1
2017-08-31T02:44:31.577Z,24.1
2017-08-31T02:45:32.219Z,24.1
2017-08-31T02:46:32.865Z,24.2
2017-08-31T02:47:33.510Z,24.1
2017-08-31T02:48:34.155Z,24.2
2017-08-31T02:49:34.797Z,24.1
2017-08-31T02:50:35.441Z,24.1
2017-08-31T02:51:36.085Z,24.2
2017-08-31T02:52:36.731Z,24.2
2017-08-31T02:53:37.375Z,24.2
2017-08-31T02:54:38.019Z,24.2
2017-08-31T02:55:38.662Z,24.2
2017-08-31T02:56:39.305Z,24.2
2017-08-31T02:57:39.948Z,24.2
2017-08-31T02:58:41.494Z,24.2
2017-08-31T02:59:42.138Z,24.1
2017-08-31T03:00:42.780Z,24.1
2017-08-31T03:01:43.428Z,24.1
2017-08-31T03:02:44.068Z,24.2
2017-08-31T03:03:44.716Z,24.2
2017-08-31T03:04:45.358Z,24.2
2017-08-31T03:05:46.004Z,24.1
2017-08-31T03:06:46.648Z,24.1
2017-08-31T03:07:47.293Z,24.1
2017-08-31T03:08:47.938Z,24.1
2017-08-31T03:09:48.584Z,24.1
2017-08-31T03:10:49.228Z,24.1
2017-08-31T03:11:49.874Z,24.2
2017-08-31T03:12:50.518Z,24.1
2017-08-31T03:13:51.262Z,24.1
2017-08-31T03:14:51.904Z,24.2
2017-08-31T03:15:52.547Z,24.1
2017-08-31T03:16:53.190Z,24.1
2017-08-31T03:17:53.835Z,24.1
2017-08-31T03:18:54.478Z,24.1
2017-08-31T03:19:55.122Z,24.1
2017-08-31T03:20:55.766Z,24.1
2017-08-31T03:21:56.414Z,24.1
2017-08-31T03:22:57.056Z,24.1
2017-08-31T03:23:57.702Z,24.1
2017-08-31T03:24:58.350Z,24.1
2017-08-31T03:25:58.989Z,24.1
2017-08-31T03:26:59.631Z,24.1
2017-08-31T03:28:00.275Z,24.1
2017-08-31T03:29:01.069Z,24.1
2017-08-31T03:30:01.714Z,24.1
2017-08-31T03:31:02.357Z,24.1
2017-08-31T03:32:03.002Z,24.1
2017-08-31T03:33:03.644Z,24.1
2017-08-31T03:34:04.290Z,24.1
2017-08-31T03:35:04.932Z,24.1
2017-08-31T03:36:05.577Z,24.1
2017-08-31T03:37:06.220Z,24.1
2017-08-31T03:38:06.865Z,24.1
2017-08-31T03:39:07.510Z,24.1
2017-08-31T03:40:08.156Z,24.1
2017-08-31T03:41:08.799Z,24.1
2017-08-31T03:42:09.442Z,24.1
2017-08-31T03:43:10.084Z,24.1
2017-08-31T03:44:10.827Z,24.0
2017-08-31T03:45:11.470Z,24.1
2017-08-31T03:46:12.115Z,24.1
2017-08-31T03:47:12.759Z,24.1
2017-08-31T03:48:13.411Z,24.1
2017-08-31T03:49:14.059Z,24.1
2017-08-31T03:50:14.693Z,24.1
2017-08-31T03:51:15.337Z,24.1
2017-08-31T03:52:16.017Z,24.1
2017-08-31T03:53:16.660Z,24.1
2017-08-31T03:54:17.305Z,24.0
2017-08-31T03:55:17.953Z,24.1
2017-08-31T03:56:18.593Z,24.0
2017-08-31T03:57:19.246Z,24.1
2017-08-31T03:58:19.883Z,24.1
2017-08-31T03:59:20.625Z,24.0
2017-08-31T04:00:21.267Z,24.1
2017-08-31T04:01:21.911Z,24.1
2017-08-31T04:02:22.554Z,24.1
2017-08-31T04:03:23.199Z,24.1
2017-08-31T04:04:23.842Z,24.1
2017-08-31T04:05:24.487Z,23.9
2017-08-31T04:06:25.130Z,23.9
2017-08-31T04:07:25.784Z,24.0
2017-08-31T04:08:26.421Z,24.1
2017-08-31T04:09:27.073Z,24.1
2017-08-31T04:10:27.714Z,24.0
2017-08-31T04:11:28.358Z,24.1
2017-08-31T04:12:29.003Z,24.0
2017-08-31T04:13:29.648Z,24.0
2017-08-31T04:14:30.442Z,24.0
2017-08-31T04:15:31.085Z,24.1
2017-08-31T04:16:31.731Z,24.1
2017-08-31T04:17:32.375Z,24.0
2017-08-31T04:18:33.022Z,24.0
2017-08-31T04:19:33.667Z,24.0
2017-08-31T04:20:34.313Z,24.0
2017-08-31T04:21:34.957Z,24.0
2017-08-31T04:22:35.601Z,24.0
2017-08-31T04:23:36.245Z,24.0
2017-08-31T04:24:36.890Z,24.0
2017-08-31T04:25:37.535Z,24.0
2017-08-31T04:26:38.182Z,24.0
2017-08-31T04:27:38.825Z,24.0
2017-08-31T04:28:39.470Z,24.0
2017-08-31T04:29:40.365Z,24.0
2017-08-31T04:30:41.009Z,24.0
2017-08-31T04:31:41.653Z,24.0
2017-08-31T04:32:42.313Z,24.0
2017-08-31T04:33:42.942Z,24.0
2017-08-31T04:34:43.583Z,24.0
2017-08-31T04:35:44.229Z,24.0
2017-08-31T04:36:44.871Z,24.0
2017-08-31T04:37:45.516Z,24.0
2017-08-31T04:38:46.160Z,24.0
2017-08-31T04:39:46.806Z,24.0
2017-08-31T04:40:47.449Z,24.0
2017-08-31T04:41:48.095Z,24.0
2017-08-31T04:42:48.738Z,24.0
2017-08-31T04:43:49.382Z,24.0
2017-08-31T04:44:50.124Z,24.1
2017-08-31T04:45:50.768Z,24.1
2017-08-31T04:46:51.411Z,23.9
2017-08-31T04:47:52.056Z,24.0
2017-08-31T04:48:52.705Z,24.0
2017-08-31T04:49:53.352Z,24.0
2017-08-31T04:50:53.996Z,24.0
2017-08-31T04:51:54.640Z,23.9
2017-08-31T04:52:55.283Z,24.0
2017-08-31T04:53:55.928Z,23.9
2017-08-31T04:54:56.572Z,24.0
2017-08-31T04:55:57.217Z,24.0
2017-08-31T04:56:57.861Z,24.1
2017-08-31T04:57:58.506Z,24.0
2017-08-31T04:58:59.153Z,24.0
2017-08-31T05:00:00.098Z,24.0
2017-08-31T05:01:00.743Z,24.0
2017-08-31T05:02:01.390Z,24.0
2017-08-31T05:03:02.032Z,24.0
2017-08-31T05:04:02.678Z,24.0
2017-08-31T05:05:03.322Z,24.0
2017-08-31T05:06:03.967Z,23.9
2017-08-31T05:07:04.610Z,24.0
2017-08-31T05:08:05.270Z,24.0
2017-08-31T05:09:05.909Z,24.0
2017-08-31T05:10:06.553Z,23.9
2017-08-31T05:11:07.201Z,24.0
2017-08-31T05:12:07.906Z,24.0
2017-08-31T05:13:08.550Z,24.0
2017-08-31T05:14:09.193Z,24.0
2017-08-31T05:15:09.990Z,23.9
2017-08-31T05:16:10.634Z,24.0
2017-08-31T05:17:11.278Z,24.0
2017-08-31T05:18:11.923Z,24.0
2017-08-31T05:19:12.568Z,24.0
2017-08-31T05:20:13.213Z,24.0
2017-08-31T05:21:13.856Z,24.0
2017-08-31T05:22:14.750Z,24.0
2017-08-31T05:23:15.393Z,24.0
2017-08-31T05:24:16.035Z,23.9
2017-08-31T05:25:16.681Z,23.9
2017-08-31T05:26:17.325Z,24.0
2017-08-31T05:27:17.970Z,24.0
2017-08-31T05:28:18.613Z,24.0
2017-08-31T05:29:19.258Z,24.0
2017-08-31T05:30:19.903Z,24.0
2017-08-31T05:31:20.547Z,24.0
2017-08-31T05:32:21.217Z,24.0
2017-08-31T05:33:21.840Z,23.9
2017-08-31T05:34:22.483Z,24.0
2017-08-31T05:35:23.129Z,23.9
2017-08-31T05:36:23.773Z,23.9
2017-08-31T05:37:24.568Z,24.0
2017-08-31T05:38:25.213Z,23.9
2017-08-31T05:39:26.558Z,24.0
2017-08-31T05:40:27.651Z,23.9
2017-08-31T05:41:28.295Z,23.9
2017-08-31T05:42:28.939Z,23.9
2017-08-31T05:43:29.583Z,24.0
2017-08-31T05:44:30.226Z,23.9
2017-08-31T05:45:30.869Z,23.9
2017-08-31T05:46:31.512Z,24.0
2017-08-31T05:47:32.156Z,23.9
2017-08-31T05:48:32.799Z,23.9
2017-08-31T05:49:33.442Z,23.9
2017-08-31T05:50:34.085Z,23.8
2017-08-31T05:51:34.731Z,23.9
2017-08-31T05:52:35.376Z,23.9
2017-08-31T05:53:36.022Z,23.9
2017-08-31T05:54:36.665Z,24.0
2017-08-31T05:55:37.459Z,23.9
2017-08-31T05:56:38.107Z,23.9
2017-08-31T05:57:38.747Z,23.9
2017-08-31T05:58:39.391Z,23.9
2017-08-31T05:59:40.033Z,23.9
2017-08-31T06:00:40.677Z,23.9
2017-08-31T06:01:41.319Z,23.9
2017-08-31T06:02:41.961Z,23.8
2017-08-31T06:03:42.608Z,23.8
2017-08-31T06:04:43.251Z,23.9
2017-08-31T06:05:43.895Z,23.9
2017-08-31T06:06:44.539Z,23.9
2017-08-31T06:07:45.185Z,23.9
2017-08-31T06:08:45.829Z,23.9
2017-08-31T06:09:46.474Z,23.8
2017-08-31T06:10:47.120Z,23.9
2017-08-31T06:11:47.766Z,24.0
2017-08-31T06:12:48.410Z,23.9
2017-08-31T06:13:49.056Z,23.9
2017-08-31T06:14:49.701Z,23.9
2017-08-31T06:15:50.346Z,23.9
2017-08-31T06:16:50.991Z,24.0
2017-08-31T06:17:51.787Z,23.8
2017-08-31T06:18:52.432Z,23.9
2017-08-31T06:19:53.376Z,23.9
2017-08-31T06:20:54.021Z,23.9
2017-08-31T06:21:54.664Z,23.9
2017-08-31T06:22:55.461Z,23.9
2017-08-31T06:23:56.106Z,23.9
2017-08-31T06:24:56.750Z,24.0
2017-08-31T06:25:57.393Z,23.9
2017-08-31T06:26:58.040Z,23.9
2017-08-31T06:27:58.686Z,23.1
2017-08-31T06:28:59.336Z,22.7
2017-08-31T06:29:59.977Z,22.4
2017-08-31T06:31:00.622Z,22.2
2017-08-31T06:32:01.269Z,21.9
2017-08-31T06:33:02.064Z,21.7
2017-08-31T06:34:02.705Z,21.8
2017-08-31T06:35:03.351Z,21.5
2017-08-31T06:36:04.143Z,21.2
2017-08-31T06:37:04.937Z,21.2
2017-08-31T06:38:05.580Z,21.1
2017-08-31T06:39:06.223Z,21.2
2017-08-31T06:40:06.864Z,21.3
2017-08-31T06:41:07.658Z,21.4
2017-08-31T06:42:08.301Z,21.2
2017-08-31T06:43:08.949Z,21.3
2017-08-31T06:44:09.595Z,21.2
2017-08-31T06:45:10.233Z,21.2
2017-08-31T06:46:10.873Z,21.2
2017-08-31T06:47:11.522Z,21.2
2017-08-31T06:48:12.460Z,21.2
2017-08-31T06:49:13.302Z,20.9
2017-08-31T06:50:14.093Z,21.0
2017-08-31T06:51:15.185Z,21.2
2017-08-31T06:52:15.827Z,21.0
2017-08-31T06:53:16.467Z,21.0
2017-08-31T06:54:17.109Z,20.9
2017-08-31T06:55:17.751Z,21.1
2017-08-31T06:56:18.392Z,20.8
2017-08-31T06:57:19.035Z,20.7
2017-08-31T06:58:19.677Z,20.7
2017-08-31T06:59:20.378Z,20.7
2017-08-31T07:00:21.054Z,20.5
2017-08-31T07:01:21.700Z,20.5
2017-08-31T07:02:22.337Z,20.8
2017-08-31T07:03:22.979Z,20.8
2017-08-31T07:04:23.621Z,20.7
2017-08-31T07:05:24.414Z,20.6
2017-08-31T07:06:25.056Z,20.5
2017-08-31T07:07:25.697Z,20.5
2017-08-31T07:08:26.441Z,20.7
2017-08-31T07:09:27.085Z,20.6
2017-08-31T07:10:27.728Z,20.7
2017-08-31T07:11:28.371Z,20.8
2017-08-31T07:12:29.014Z,20.7
2017-08-31T07:13:29.809Z,20.7
2017-08-31T07:14:30.454Z,20.6
2017-08-31T07:15:31.097Z,20.5
2017-08-31T07:16:31.739Z,20.5
2017-08-31T07:17:32.381Z,20.6
2017-08-31T07:18:33.026Z,20.7
2017-08-31T07:19:33.668Z,20.7
2017-08-31T07:20:34.312Z,20.7
2017-08-31T07:21:34.954Z,20.6
2017-08-31T07:22:35.600Z,20.7
2017-08-31T07:23:36.243Z,20.7
2017-08-31T07:24:36.887Z,20.7
2017-08-31T07:25:37.680Z,20.9
2017-08-31T07:26:38.322Z,21.0
2017-08-31T07:27:38.988Z,21.2
2017-08-31T07:28:39.609Z,21.2
2017-08-31T07:29:40.254Z,21.3
2017-08-31T07:30:41.045Z,21.3
2017-08-31T07:31:41.689Z,21.4
2017-08-31T07:32:42.334Z,21.4
2017-08-31T07:33:42.975Z,21.5
2017-08-31T07:34:43.621Z,21.5
2017-08-31T07:35:44.262Z,21.6
2017-08-31T07:36:45.057Z,21.7
2017-08-31T07:37:45.702Z,21.6
2017-08-31T07:38:46.344Z,21.7
2017-08-31T07:39:46.988Z,21.7
2017-08-31T07:40:47.780Z,21.7
2017-08-31T07:41:48.527Z,21.5
2017-08-31T07:42:49.167Z,21.4
2017-08-31T07:43:49.812Z,21.2
2017-08-31T07:44:50.456Z,21.4
2017-08-31T07:45:51.101Z,21.5
2017-08-31T07:46:51.745Z,21.5
2017-08-31T07:47:52.389Z,21.5
2017-08-31T07:48:53.484Z,21.5
2017-08-31T07:49:54.128Z,21.5
2017-08-31T07:50:54.873Z,21.4
2017-08-31T07:51:55.667Z,21.5
2017-08-31T07:52:56.311Z,21.5
2017-08-31T07:53:57.055Z,21.5
2017-08-31T07:54:57.851Z,21.5
2017-08-31T07:55:58.491Z,21.6
2017-08-31T07:56:59.135Z,21.6
2017-08-31T07:57:59.778Z,21.5
2017-08-31T07:59:00.421Z,21.5
2017-08-31T08:00:01.064Z,21.5
2017-08-31T08:01:01.706Z,21.5
2017-08-31T08:02:02.350Z,21.5
2017-08-31T08:03:02.994Z,21.5
2017-08-31T08:04:03.638Z,21.5
2017-08-31T08:05:04.280Z,21.5
2017-08-31T08:06:05.223Z,21.5
2017-08-31T08:07:05.866Z,21.5
2017-08-31T08:08:06.509Z,21.4
2017-08-31T08:09:07.252Z,21.5
2017-08-31T08:10:07.896Z,21.4
2017-08-31T08:11:08.541Z,21.4
2017-08-31T08:12:09.222Z,21.4
2017-08-31T08:13:09.865Z,21.5
2017-08-31T08:14:10.508Z,21.5
2017-08-31T08:15:11.155Z,21.6
2017-08-31T08:16:11.794Z,21.6
2017-08-31T08:17:12.787Z,21.8
2017-08-31T08:18:13.432Z,21.8
2017-08-31T08:19:14.076Z,21.8
2017-08-31T08:20:14.721Z,21.7
2017-08-31T08:21:15.365Z,21.7
2017-08-31T08:22:16.460Z,21.8
2017-08-31T08:23:17.104Z,21.8
2017-08-31T08:24:17.748Z,21.8
2017-08-31T08:25:18.540Z,21.8
2017-08-31T08:26:19.184Z,21.6
2017-08-31T08:27:20.029Z,21.6
2017-08-31T08:28:20.672Z,21.7
2017-08-31T08:29:21.313Z,21.8
2017-08-31T08:30:21.958Z,21.6
2017-08-31T08:31:22.601Z,21.8
2017-08-31T08:32:23.245Z,21.7
2017-08-31T08:33:23.888Z,21.8
2017-08-31T08:34:24.532Z,21.6
2017-08-31T08:35:25.476Z,21.7
2017-08-31T08:36:26.220Z,21.8
2017-08-31T08:37:26.864Z,21.7
2017-08-31T08:38:27.509Z,21.8
2017-08-31T08:39:28.153Z,21.8
2017-08-31T08:40:28.998Z,21.8
2017-08-31T08:41:29.640Z,21.6
2017-08-31T08:42:30.285Z,21.5
2017-08-31T08:43:30.929Z,21.6
2017-08-31T08:44:31.574Z,21.5
2017-08-31T08:45:32.568Z,21.5
2017-08-31T08:46:33.212Z,21.6
2017-08-31T08:47:33.856Z,21.6
2017-08-31T08:48:34.501Z,21.7
2017-08-31T08:49:35.308Z,21.6
2017-08-31T08:50:35.940Z,21.7
2017-08-31T08:51:36.583Z,21.6
2017-08-31T08:52:37.226Z,21.5
2017-08-31T08:53:37.871Z,21.6
2017-08-31T08:54:38.665Z,21.6
2017-08-31T08:55:39.309Z,21.8
2017-08-31T08:56:39.955Z,21.9
2017-08-31T08:57:40.599Z,22.0
2017-08-31T08:58:41.394Z,21.9
2017-08-31T08:59:42.039Z,21.9
2017-08-31T09:00:42.685Z,21.8
2017-08-31T09:01:43.529Z,21.9
2017-08-31T09:02:44.172Z,21.9
2017-08-31T09:03:45.166Z,21.9
2017-08-31T09:04:45.920Z,21.9
2017-08-31T09:05:46.556Z,21.9
2017-08-31T09:06:47.404Z,21.9
2017-08-31T09:07:48.042Z,21.9
2017-08-31T09:08:48.786Z,22.0
2017-08-31T09:09:49.429Z,22.0
2017-08-31T09:10:50.072Z,22.0
2017-08-31T09:11:50.716Z,22.1
2017-08-31T09:12:51.510Z,21.9
2017-08-31T09:13:52.154Z,22.0
2017-08-31T09:14:52.800Z,22.0
2017-08-31T09:15:53.441Z,22.0
2017-08-31T09:16:54.084Z,22.1
2017-08-31T09:17:54.729Z,21.9
2017-08-31T09:18:55.372Z,22.0
2017-08-31T09:19:56.018Z,22.0
2017-08-31T09:20:56.661Z,22.0
2017-08-31T09:21:57.306Z,21.9
2017-08-31T09:22:58.450Z,21.9
2017-08-31T09:23:59.092Z,21.8
2017-08-31T09:24:59.884Z,21.9
2017-08-31T09:26:00.628Z,21.9
2017-08-31T09:27:01.273Z,22.0
2017-08-31T09:28:01.918Z,22.1
2017-08-31T09:29:02.563Z,22.1
2017-08-31T09:30:03.207Z,22.2
2017-08-31T09:31:03.852Z,22.1
2017-08-31T09:32:04.539Z,22.2
2017-08-31T09:33:05.186Z,22.2
2017-08-31T09:34:05.830Z,22.3
2017-08-31T09:35:06.474Z,22.3
2017-08-31T09:36:07.218Z,22.3
2017-08-31T09:37:07.861Z,22.3
2017-08-31T09:38:08.512Z,22.3
2017-08-31T09:39:09.150Z,22.3
2017-08-31T09:40:09.796Z,22.3
2017-08-31T09:41:10.440Z,22.3
2017-08-31T09:42:11.086Z,22.4
2017-08-31T09:43:11.981Z,22.5
2017-08-31T09:44:12.783Z,22.5
2017-08-31T09:45:13.425Z,22.5
2017-08-31T09:46:14.070Z,22.5
2017-08-31T09:47:14.715Z,22.5
2017-08-31T09:48:15.359Z,22.6
2017-08-31T09:49:16.003Z,22.7
2017-08-31T09:50:16.649Z,22.7
2017-08-31T09:51:17.295Z,22.7
2017-08-31T09:52:17.941Z,22.8
2017-08-31T09:53:18.737Z,22.8
2017-08-31T09:54:19.482Z,22.8
2017-08-31T09:55:20.127Z,22.8
2017-08-31T09:56:20.773Z,22.9
2017-08-31T09:57:21.418Z,23.0
2017-08-31T09:58:22.062Z,23.1
2017-08-31T09:59:22.708Z,23.1
2017-08-31T10:00:23.353Z,23.2
2017-08-31T10:01:23.999Z,23.1
2017-08-31T10:02:24.645Z,23.2
2017-08-31T10:03:25.289Z,23.2
2017-08-31T10:04:26.085Z,23.2
2017-08-31T10:05:26.731Z,23.2
2017-08-31T10:06:27.527Z,23.2
2017-08-31T10:07:28.174Z,23.2
2017-08-31T10:08:28.819Z,23.2
2017-08-31T10:09:29.465Z,23.2
2017-08-31T10:10:30.411Z,23.3
2017-08-31T10:11:31.056Z,23.3
2017-08-31T10:12:31.702Z,23.3
2017-08-31T10:13:32.449Z,23.4
2017-08-31T10:14:33.095Z,23.4
2017-08-31T10:15:33.740Z,23.4
2017-08-31T10:16:34.387Z,23.3
2017-08-31T10:17:35.032Z,23.4
2017-08-31T10:18:35.678Z,23.4
2017-08-31T10:19:36.333Z,23.4
2017-08-31T10:20:36.976Z,23.5
2017-08-31T10:21:37.720Z,23.4
2017-08-31T10:22:38.365Z,23.4
2017-08-31T10:23:39.011Z,23.4
2017-08-31T10:24:39.810Z,23.4
2017-08-31T10:25:40.460Z,23.5
2017-08-31T10:26:41.105Z,23.5
2017-08-31T10:27:41.751Z,23.6
2017-08-31T10:28:42.397Z,23.6
2017-08-31T10:29:43.041Z,23.7
2017-08-31T10:30:43.687Z,23.7
2017-08-31T10:31:44.330Z,23.7
2017-08-31T10:32:44.977Z,23.7
2017-08-31T10:33:45.623Z,23.7
2017-08-31T10:34:46.269Z,23.8
2017-08-31T10:35:46.916Z,23.7
2017-08-31T10:36:47.709Z,23.4
2017-08-31T10:37:48.355Z,23.4
2017-08-31T10:38:49.001Z,23.4
2017-08-31T10:39:49.645Z,23.2
2017-08-31T10:40:50.289Z,23.2
2017-08-31T10:41:50.935Z,23.2
2017-08-31T10:42:51.582Z,23.1
2017-08-31T10:43:52.325Z,23.1
2017-08-31T10:44:52.972Z,23.3
2017-08-31T10:45:53.618Z,23.2
2017-08-31T10:46:54.265Z,23.2
2017-08-31T10:47:54.910Z,23.1
2017-08-31T10:48:55.557Z,23.1
2017-08-31T10:49:56.202Z,23.1
2017-08-31T10:50:56.848Z,23.2
2017-08-31T10:51:57.493Z,23.0
2017-08-31T10:52:58.491Z,23.1
2017-08-31T10:53:59.135Z,23.1
2017-08-31T10:54:59.881Z,23.1
2017-08-31T10:56:00.678Z,23.2
2017-08-31T10:57:01.324Z,23.3
2017-08-31T10:58:02.017Z,23.3
2017-08-31T10:59:02.814Z,23.3
2017-08-31T11:00:03.565Z,23.3
2017-08-31T11:01:04.354Z,23.1
2017-08-31T11:02:05.001Z,23.2
2017-08-31T11:03:05.647Z,23.2
2017-08-31T11:04:06.444Z,23.2
2017-08-31T11:05:07.088Z,23.3
2017-08-31T11:06:07.984Z,23.3
2017-08-31T11:07:08.637Z,23.2
2017-08-31T11:08:09.378Z,23.2
2017-08-31T11:09:10.023Z,23.3
2017-08-31T11:10:10.668Z,23.3
2017-08-31T11:11:11.315Z,23.2
2017-08-31T11:12:12.029Z,23.2
2017-08-31T11:13:12.675Z,23.1
2017-08-31T11:14:13.321Z,23.2
2017-08-31T11:15:14.066Z,23.2
2017-08-31T11:16:14.711Z,23.1
2017-08-31T11:17:15.556Z,23.1
2017-08-31T11:18:16.353Z,23.1
2017-08-31T11:19:16.998Z,23.1
2017-08-31T11:20:17.643Z,23.1
2017-08-31T11:21:18.288Z,23.1
2017-08-31T11:22:18.933Z,23.2
2017-08-31T11:23:19.578Z,23.1
2017-08-31T11:24:20.224Z,23.1
2017-08-31T11:25:20.867Z,23.0
2017-08-31T11:26:21.578Z,23.0
2017-08-31T11:27:22.361Z,23.0
2017-08-31T11:28:22.873Z,22.9
2017-08-31T11:29:23.527Z,22.8
2017-08-31T11:30:24.226Z,22.8
2017-08-31T11:31:24.866Z,22.9
2017-08-31T11:32:25.614Z,22.9
2017-08-31T11:33:26.596Z,22.9
2017-08-31T11:34:27.227Z,22.9
2017-08-31T11:35:27.913Z,22.8
2017-08-31T11:36:28.657Z,22.9
2017-08-31T11:37:29.212Z,22.9
2017-08-31T11:38:29.853Z,22.9
2017-08-31T11:39:30.496Z,22.9
2017-08-31T11:40:31.242Z,22.9
2017-08-31T11:41:31.889Z,22.9
2017-08-31T11:42:32.534Z,23.1
2017-08-31T11:43:33.380Z,23.1
2017-08-31T11:44:34.024Z,23.2
2017-08-31T11:45:34.668Z,23.3
2017-08-31T11:46:35.820Z,23.3
2017-08-31T11:47:36.463Z,23.3
2017-08-31T11:48:37.113Z,23.4
2017-08-31T11:49:37.904Z,23.5
2017-08-31T11:50:38.654Z,23.6
2017-08-31T11:51:39.293Z,23.4
2017-08-31T11:52:39.939Z,23.2
2017-08-31T11:53:40.684Z,23.0
2017-08-31T11:54:41.327Z,22.9
2017-08-31T11:55:41.972Z,22.8
2017-08-31T11:56:42.618Z,22.8
2017-08-31T11:57:43.265Z,22.8
2017-08-31T11:58:44.107Z,22.9
2017-08-31T11:59:44.752Z,22.8
2017-08-31T12:00:45.398Z,22.8
2017-08-31T12:01:46.042Z,22.7
2017-08-31T12:02:46.688Z,22.8
2017-08-31T12:03:47.436Z,22.9
2017-08-31T12:04:48.229Z,22.9
2017-08-31T12:05:48.873Z,22.8
2017-08-31T12:06:49.622Z,22.9
2017-08-31T12:07:50.263Z,22.7
2017-08-31T12:08:50.908Z,22.7
2017-08-31T12:09:51.651Z,22.7
2017-08-31T12:10:52.297Z,22.8
2017-08-31T12:11:53.094Z,22.9
2017-08-31T12:12:53.889Z,22.9
2017-08-31T12:13:54.534Z,22.8
2017-08-31T12:14:55.281Z,22.8
2017-08-31T12:15:55.926Z,22.7
2017-08-31T12:16:56.571Z,22.6
2017-08-31T12:17:57.216Z,22.7
2017-08-31T12:18:57.861Z,22.7
2017-08-31T12:19:58.506Z,22.6
2017-08-31T12:20:59.153Z,22.6
2017-08-31T12:21:59.798Z,22.5
2017-08-31T12:23:00.444Z,22.4
2017-08-31T12:24:01.088Z,22.3
2017-08-31T12:25:01.884Z,22.4
2017-08-31T12:26:02.680Z,22.3
2017-08-31T12:27:03.328Z,22.3
2017-08-31T12:28:03.973Z,22.1
2017-08-31T12:29:04.617Z,22.3
2017-08-31T12:30:05.258Z,22.1
2017-08-31T12:31:05.901Z,22.1
2017-08-31T12:32:06.581Z,22.0
2017-08-31T12:33:07.226Z,21.9
2017-08-31T12:34:07.870Z,22.0
2017-08-31T12:35:08.515Z,22.0
2017-08-31T12:36:09.161Z,21.9
2017-08-31T12:37:09.806Z,21.9
2017-08-31T12:38:10.450Z,21.9
2017-08-31T12:39:11.093Z,21.9
2017-08-31T12:40:11.738Z,22.1
2017-08-31T12:41:12.384Z,22.0
2017-08-31T12:42:13.177Z,22.0
2017-08-31T12:43:13.820Z,21.9
2017-08-31T12:44:14.615Z,21.9
2017-08-31T12:45:15.260Z,21.9
2017-08-31T12:46:15.902Z,21.6
2017-08-31T12:47:16.547Z,21.2
2017-08-31T12:48:17.189Z,21.3
2017-08-31T12:49:17.835Z,21.6
2017-08-31T12:50:18.477Z,21.7
2017-08-31T12:51:19.321Z,21.8
2017-08-31T12:52:20.017Z,21.9
2017-08-31T12:53:20.660Z,21.9
2017-08-31T12:54:21.457Z,22.1
2017-08-31T12:55:22.102Z,22.0
2017-08-31T12:56:22.748Z,22.1
2017-08-31T12:57:23.544Z,22.3
2017-08-31T12:58:24.192Z,22.2
2017-08-31T12:59:24.935Z,22.3
2017-08-31T13:00:25.730Z,22.3
2017-08-31T13:01:26.375Z,22.5
2017-08-31T13:02:27.018Z,22.5
2017-08-31T13:03:27.664Z,22.5
2017-08-31T13:04:28.308Z,22.4
2017-08-31T13:05:28.954Z,22.5
2017-08-31T13:06:29.747Z,22.4
2017-08-31T13:07:30.391Z,22.6
2017-08-31T13:08:31.035Z,22.3
2017-08-31T13:09:31.678Z,22.2
2017-08-31T13:10:32.324Z,22.1
2017-08-31T13:11:32.967Z,22.3
2017-08-31T13:12:33.613Z,22.4
2017-08-31T13:13:34.407Z,22.4
2017-08-31T13:14:35.200Z,22.3
2017-08-31T13:15:35.844Z,22.2
2017-08-31T13:16:36.490Z,22.3
2017-08-31T13:17:37.132Z,22.1
2017-08-31T13:18:37.930Z,22.0
2017-08-31T13:19:38.575Z,22.0
2017-08-31T13:20:39.218Z,22.1
2017-08-31T13:21:39.863Z,21.9
2017-08-31T13:22:40.508Z,21.8
2017-08-31T13:23:41.153Z,21.9
2017-08-31T13:24:42.097Z,22.1
2017-08-31T13:25:42.742Z,22.5
2017-08-31T13:26:43.385Z,22.7
2017-08-31T13:27:44.031Z,22.8